sensor_id;sensor_type;location;lat;lon;timestamp;temperature;humidity
52867;DHT22;38739;53.324;6.862;2023-08-17T00:00:14;16.30;99.90
52867;DHT22;38739;53.324;6.862;2023-08-17T00:02:40;16.30;99.90
52867;DHT22;38739;53.324;6.862;2023-08-17T00:05:06;16.30;99.90
52867;DHT22;38739;53.324;6.862;2023-08-17T00:07:33;16.30;99.90
52867;DHT22;38739;53.324;6.862;2023-08-17T00:09:58;16.30;99.90
52867;DHT22;38739;53.324;6.862;2023-08-17T00:12:24;16.30;99.90
52867;DHT22;38739;53.324;6.862;2023-08-17T00:14:51;16.30;99.90
52867;DHT22;38739;53.324;6.862;2023-08-17T00:17:17;16.20;99.90
52867;DHT22;38739;53.324;6.862;2023-08-17T00:19:43;16.20;99.90
52867;DHT22;38739;53.324;6.862;2023-08-17T00:22:09;16.20;99.90
52867;DHT22;38739;53.324;6.862;2023-08-17T00:24:34;16.20;99.90
52867;DHT22;38739;53.324;6.862;2023-08-17T00:27:00;16.20;99.90
52867;DHT22;38739;53.324;6.862;2023-08-17T00:29:26;16.20;99.90
52867;DHT22;38739;53.324;6.862;2023-08-17T00:31:52;16.20;99.90
52867;DHT22;38739;53.324;6.862;2023-08-17T00:34:18;16.20;99.90
52867;DHT22;38739;53.324;6.862;2023-08-17T00:36:44;16.20;99.90
52867;DHT22;38739;53.324;6.862;2023-08-17T00:39:10;16.10;99.90
52867;DHT22;38739;53.324;6.862;2023-08-17T00:41:36;16.20;99.90
52867;DHT22;38739;53.324;6.862;2023-08-17T00:44:01;16.10;99.90
52867;DHT22;38739;53.324;6.862;2023-08-17T00:46:27;16.10;99.90
52867;DHT22;38739;53.324;6.862;2023-08-17T00:48:54;16.10;99.90
52867;DHT22;38739;53.324;6.862;2023-08-17T00:51:24;16.10;99.90
52867;DHT22;38739;53.324;6.862;2023-08-17T00:53:51;16.10;99.90
52867;DHT22;38739;53.324;6.862;2023-08-17T00:56:18;16.00;99.90
52867;DHT22;38739;53.324;6.862;2023-08-17T00:58:44;16.00;99.90
52867;DHT22;38739;53.324;6.862;2023-08-17T01:01:09;16.00;99.90
52867;DHT22;38739;53.324;6.862;2023-08-17T01:03:35;15.90;99.90
52867;DHT22;38739;53.324;6.862;2023-08-17T01:06:01;15.90;99.90
52867;DHT22;38739;53.324;6.862;2023-08-17T01:08:29;15.90;99.90
52867;DHT22;38739;53.324;6.862;2023-08-17T01:13:49;15.90;99.90
52867;DHT22;38739;53.324;6.862;2023-08-17T01:16:24;15.90;99.90
52867;DHT22;38739;53.324;6.862;2023-08-17T01:18:52;16.00;99.90
52867;DHT22;38739;53.324;6.862;2023-08-17T01:21:21;15.90;99.90
52867;DHT22;38739;53.324;6.862;2023-08-17T01:23:49;15.90;99.90
52867;DHT22;38739;53.324;6.862;2023-08-17T01:26:15;16.00;99.90
52867;DHT22;38739;53.324;6.862;2023-08-17T01:28:45;15.90;99.90
52867;DHT22;38739;53.324;6.862;2023-08-17T01:31:17;15.90;99.90
52867;DHT22;38739;53.324;6.862;2023-08-17T01:33:50;15.90;99.90
52867;DHT22;38739;53.324;6.862;2023-08-17T01:38:51;15.90;99.90
52867;DHT22;38739;53.324;6.862;2023-08-17T01:41:20;15.90;99.90
52867;DHT22;38739;53.324;6.862;2023-08-17T01:43:46;15.90;99.90
52867;DHT22;38739;53.324;6.862;2023-08-17T01:46:14;15.90;99.90
52867;DHT22;38739;53.324;6.862;2023-08-17T01:48:43;15.90;99.90
52867;DHT22;38739;53.324;6.862;2023-08-17T01:51:11;15.90;99.90
52867;DHT22;38739;53.324;6.862;2023-08-17T01:53:37;15.90;99.90
52867;DHT22;38739;53.324;6.862;2023-08-17T01:56:03;15.90;99.90
52867;DHT22;38739;53.324;6.862;2023-08-17T01:58:28;15.90;99.90
52867;DHT22;38739;53.324;6.862;2023-08-17T02:00:54;15.80;99.90
52867;DHT22;38739;53.324;6.862;2023-08-17T02:03:20;15.80;99.90
52867;DHT22;38739;53.324;6.862;2023-08-17T02:05:46;15.80;99.90
52867;DHT22;38739;53.324;6.862;2023-08-17T02:08:12;15.70;99.90
52867;DHT22;38739;53.324;6.862;2023-08-17T02:10:38;15.70;99.90
52867;DHT22;38739;53.324;6.862;2023-08-17T02:13:04;15.70;99.90
52867;DHT22;38739;53.324;6.862;2023-08-17T02:15:29;15.70;99.90
52867;DHT22;38739;53.324;6.862;2023-08-17T02:17:57;15.60;99.90
52867;DHT22;38739;53.324;6.862;2023-08-17T02:20:23;15.60;99.90
52867;DHT22;38739;53.324;6.862;2023-08-17T02:22:48;15.60;99.90
52867;DHT22;38739;53.324;6.862;2023-08-17T02:25:14;15.60;99.90
52867;DHT22;38739;53.324;6.862;2023-08-17T02:27:40;15.60;99.90
52867;DHT22;38739;53.324;6.862;2023-08-17T02:30:06;15.50;99.90
52867;DHT22;38739;53.324;6.862;2023-08-17T02:32:31;15.60;99.90
52867;DHT22;38739;53.324;6.862;2023-08-17T02:34:57;15.60;99.90
52867;DHT22;38739;53.324;6.862;2023-08-17T02:37:23;15.60;99.90
52867;DHT22;38739;53.324;6.862;2023-08-17T02:39:48;15.50;99.90
52867;DHT22;38739;53.324;6.862;2023-08-17T02:42:14;15.60;99.90
52867;DHT22;38739;53.324;6.862;2023-08-17T02:44:40;15.60;99.90
52867;DHT22;38739;53.324;6.862;2023-08-17T02:47:05;15.60;99.90
52867;DHT22;38739;53.324;6.862;2023-08-17T02:49:31;15.60;99.90
52867;DHT22;38739;53.324;6.862;2023-08-17T02:51:57;15.60;99.90
52867;DHT22;38739;53.324;6.862;2023-08-17T02:54:22;15.60;99.90
52867;DHT22;38739;53.324;6.862;2023-08-17T02:56:48;15.70;99.90
52867;DHT22;38739;53.324;6.862;2023-08-17T02:59:14;15.60;99.90
52867;DHT22;38739;53.324;6.862;2023-08-17T03:01:39;15.70;99.90
52867;DHT22;38739;53.324;6.862;2023-08-17T03:04:05;15.70;99.90
52867;DHT22;38739;53.324;6.862;2023-08-17T03:06:31;15.70;99.90
52867;DHT22;38739;53.324;6.862;2023-08-17T03:08:56;15.70;99.90
52867;DHT22;38739;53.324;6.862;2023-08-17T03:11:22;15.60;99.90
52867;DHT22;38739;53.324;6.862;2023-08-17T03:13:48;15.60;99.90
52867;DHT22;38739;53.324;6.862;2023-08-17T03:16:14;15.60;99.90
52867;DHT22;38739;53.324;6.862;2023-08-17T03:18:41;15.70;99.90
52867;DHT22;38739;53.324;6.862;2023-08-17T03:21:07;15.60;99.90
52867;DHT22;38739;53.324;6.862;2023-08-17T03:23:33;15.60;99.90
52867;DHT22;38739;53.324;6.862;2023-08-17T03:25:58;15.60;99.90
52867;DHT22;38739;53.324;6.862;2023-08-17T03:28:24;15.60;99.90
52867;DHT22;38739;53.324;6.862;2023-08-17T03:30:55;15.60;99.90
52867;DHT22;38739;53.324;6.862;2023-08-17T03:33:21;15.60;99.90
52867;DHT22;38739;53.324;6.862;2023-08-17T03:35:47;15.50;99.90
52867;DHT22;38739;53.324;6.862;2023-08-17T03:38:12;15.50;99.90
52867;DHT22;38739;53.324;6.862;2023-08-17T03:40:39;15.50;99.90
52867;DHT22;38739;53.324;6.862;2023-08-17T03:43:04;15.50;99.90
52867;DHT22;38739;53.324;6.862;2023-08-17T03:45:30;15.50;99.90
52867;DHT22;38739;53.324;6.862;2023-08-17T03:47:56;15.50;99.90
52867;DHT22;38739;53.324;6.862;2023-08-17T03:50:22;15.50;99.90
52867;DHT22;38739;53.324;6.862;2023-08-17T03:52:48;15.50;99.90
52867;DHT22;38739;53.324;6.862;2023-08-17T03:55:13;15.50;99.90
52867;DHT22;38739;53.324;6.862;2023-08-17T03:57:39;15.50;99.90
52867;DHT22;38739;53.324;6.862;2023-08-17T04:00:05;15.50;99.90
52867;DHT22;38739;53.324;6.862;2023-08-17T04:02:31;15.50;99.90
52867;DHT22;38739;53.324;6.862;2023-08-17T04:04:57;15.50;99.90
52867;DHT22;38739;53.324;6.862;2023-08-17T04:07:24;15.50;99.90
52867;DHT22;38739;53.324;6.862;2023-08-17T04:09:49;15.40;99.90
52867;DHT22;38739;53.324;6.862;2023-08-17T04:12:15;15.40;99.90
52867;DHT22;38739;53.324;6.862;2023-08-17T04:14:41;15.40;99.90
52867;DHT22;38739;53.324;6.862;2023-08-17T04:17:06;15.40;99.90
52867;DHT22;38739;53.324;6.862;2023-08-17T04:19:32;15.30;99.90
52867;DHT22;38739;53.324;6.862;2023-08-17T04:21:58;15.40;99.90
52867;DHT22;38739;53.324;6.862;2023-08-17T04:24:24;15.30;99.90
52867;DHT22;38739;53.324;6.862;2023-08-17T04:26:50;15.30;99.90
52867;DHT22;38739;53.324;6.862;2023-08-17T04:29:24;15.30;99.90
52867;DHT22;38739;53.324;6.862;2023-08-17T04:31:49;15.30;99.90
52867;DHT22;38739;53.324;6.862;2023-08-17T04:34:15;15.30;99.90
52867;DHT22;38739;53.324;6.862;2023-08-17T04:36:41;15.20;99.90
52867;DHT22;38739;53.324;6.862;2023-08-17T04:39:07;15.30;99.90
52867;DHT22;38739;53.324;6.862;2023-08-17T04:41:33;15.20;99.90
52867;DHT22;38739;53.324;6.862;2023-08-17T04:43:59;15.20;99.90
52867;DHT22;38739;53.324;6.862;2023-08-17T04:46:24;15.20;99.90
52867;DHT22;38739;53.324;6.862;2023-08-17T04:48:50;15.20;99.90
52867;DHT22;38739;53.324;6.862;2023-08-17T04:51:16;15.20;99.90
52867;DHT22;38739;53.324;6.862;2023-08-17T04:53:42;15.20;99.90
52867;DHT22;38739;53.324;6.862;2023-08-17T04:56:07;15.20;99.90
52867;DHT22;38739;53.324;6.862;2023-08-17T04:58:33;15.20;99.90
52867;DHT22;38739;53.324;6.862;2023-08-17T05:00:59;15.20;99.90
52867;DHT22;38739;53.324;6.862;2023-08-17T05:03:25;15.20;99.90
52867;DHT22;38739;53.324;6.862;2023-08-17T05:05:54;15.20;99.90
52867;DHT22;38739;53.324;6.862;2023-08-17T05:08:19;15.20;99.90
52867;DHT22;38739;53.324;6.862;2023-08-17T05:10:48;15.20;99.90
52867;DHT22;38739;53.324;6.862;2023-08-17T05:13:13;15.20;99.90
52867;DHT22;38739;53.324;6.862;2023-08-17T05:15:39;15.30;99.90
52867;DHT22;38739;53.324;6.862;2023-08-17T05:18:05;15.20;99.90
52867;DHT22;38739;53.324;6.862;2023-08-17T05:20:31;15.20;99.90
52867;DHT22;38739;53.324;6.862;2023-08-17T05:22:57;15.20;99.90
52867;DHT22;38739;53.324;6.862;2023-08-17T05:25:22;15.30;99.90
52867;DHT22;38739;53.324;6.862;2023-08-17T05:27:48;15.30;99.90
52867;DHT22;38739;53.324;6.862;2023-08-17T05:30:17;15.30;99.90
52867;DHT22;38739;53.324;6.862;2023-08-17T05:32:43;15.40;99.90
52867;DHT22;38739;53.324;6.862;2023-08-17T05:35:08;15.30;99.90
52867;DHT22;38739;53.324;6.862;2023-08-17T05:37:34;15.40;99.90
52867;DHT22;38739;53.324;6.862;2023-08-17T05:40:00;15.40;99.90
52867;DHT22;38739;53.324;6.862;2023-08-17T05:42:25;15.40;99.90
52867;DHT22;38739;53.324;6.862;2023-08-17T05:44:51;15.50;99.90
52867;DHT22;38739;53.324;6.862;2023-08-17T05:47:17;15.50;99.90
52867;DHT22;38739;53.324;6.862;2023-08-17T05:49:45;15.50;99.90
52867;DHT22;38739;53.324;6.862;2023-08-17T05:52:11;15.50;99.90
52867;DHT22;38739;53.324;6.862;2023-08-17T05:54:37;15.60;99.90
52867;DHT22;38739;53.324;6.862;2023-08-17T05:57:03;15.60;99.90
52867;DHT22;38739;53.324;6.862;2023-08-17T05:59:29;15.60;99.90
52867;DHT22;38739;53.324;6.862;2023-08-17T06:01:55;15.70;99.90
52867;DHT22;38739;53.324;6.862;2023-08-17T06:04:20;15.70;99.90
52867;DHT22;38739;53.324;6.862;2023-08-17T06:06:46;15.80;99.90
52867;DHT22;38739;53.324;6.862;2023-08-17T06:09:12;15.80;99.90
52867;DHT22;38739;53.324;6.862;2023-08-17T06:11:39;15.80;99.90
52867;DHT22;38739;53.324;6.862;2023-08-17T06:14:05;15.90;99.90
52867;DHT22;38739;53.324;6.862;2023-08-17T06:16:31;15.90;99.90
52867;DHT22;38739;53.324;6.862;2023-08-17T06:18:57;16.00;99.90
52867;DHT22;38739;53.324;6.862;2023-08-17T06:21:23;16.10;99.90
52867;DHT22;38739;53.324;6.862;2023-08-17T06:23:48;16.10;99.90
52867;DHT22;38739;53.324;6.862;2023-08-17T06:26:14;16.20;99.90
52867;DHT22;38739;53.324;6.862;2023-08-17T06:28:40;16.20;99.90
52867;DHT22;38739;53.324;6.862;2023-08-17T06:31:06;16.30;99.90
52867;DHT22;38739;53.324;6.862;2023-08-17T06:33:32;16.30;99.90
52867;DHT22;38739;53.324;6.862;2023-08-17T06:35:58;16.30;99.90
52867;DHT22;38739;53.324;6.862;2023-08-17T06:38:23;16.40;99.90
52867;DHT22;38739;53.324;6.862;2023-08-17T06:40:49;16.40;99.90
52867;DHT22;38739;53.324;6.862;2023-08-17T06:43:14;16.40;99.90
52867;DHT22;38739;53.324;6.862;2023-08-17T06:45:40;16.40;99.90
52867;DHT22;38739;53.324;6.862;2023-08-17T06:48:06;16.40;99.90
52867;DHT22;38739;53.324;6.862;2023-08-17T06:50:31;16.40;99.90
52867;DHT22;38739;53.324;6.862;2023-08-17T06:52:57;16.40;99.90
52867;DHT22;38739;53.324;6.862;2023-08-17T06:55:23;16.50;99.90
52867;DHT22;38739;53.324;6.862;2023-08-17T06:57:48;16.50;99.90
52867;DHT22;38739;53.324;6.862;2023-08-17T07:00:18;16.50;99.90
52867;DHT22;38739;53.324;6.862;2023-08-17T07:02:49;16.60;99.90
52867;DHT22;38739;53.324;6.862;2023-08-17T07:05:16;16.60;99.90
52867;DHT22;38739;53.324;6.862;2023-08-17T07:07:42;16.70;99.90
52867;DHT22;38739;53.324;6.862;2023-08-17T07:10:09;16.70;99.90
52867;DHT22;38739;53.324;6.862;2023-08-17T07:12:37;16.80;99.90
52867;DHT22;38739;53.324;6.862;2023-08-17T07:15:03;16.80;99.90
52867;DHT22;38739;53.324;6.862;2023-08-17T07:17:30;16.80;99.90
52867;DHT22;38739;53.324;6.862;2023-08-17T07:19:55;16.90;99.90
52867;DHT22;38739;53.324;6.862;2023-08-17T07:22:21;16.90;99.90
52867;DHT22;38739;53.324;6.862;2023-08-17T07:24:47;17.00;99.90
52867;DHT22;38739;53.324;6.862;2023-08-17T07:27:12;17.00;99.90
52867;DHT22;38739;53.324;6.862;2023-08-17T07:29:38;17.10;99.90
52867;DHT22;38739;53.324;6.862;2023-08-17T07:32:04;17.10;99.90
52867;DHT22;38739;53.324;6.862;2023-08-17T07:34:30;17.10;99.90
52867;DHT22;38739;53.324;6.862;2023-08-17T07:36:57;17.20;99.90
52867;DHT22;38739;53.324;6.862;2023-08-17T07:39:23;17.30;99.90
52867;DHT22;38739;53.324;6.862;2023-08-17T07:41:48;17.30;99.90
52867;DHT22;38739;53.324;6.862;2023-08-17T07:44:14;17.40;99.90
52867;DHT22;38739;53.324;6.862;2023-08-17T07:46:40;17.40;99.90
52867;DHT22;38739;53.324;6.862;2023-08-17T07:49:06;17.50;99.90
52867;DHT22;38739;53.324;6.862;2023-08-17T07:51:34;17.50;99.90
52867;DHT22;38739;53.324;6.862;2023-08-17T07:54:00;17.60;99.90
52867;DHT22;38739;53.324;6.862;2023-08-17T07:56:26;17.60;99.90
52867;DHT22;38739;53.324;6.862;2023-08-17T07:58:53;17.60;99.90
52867;DHT22;38739;53.324;6.862;2023-08-17T08:01:20;17.70;99.90
52867;DHT22;38739;53.324;6.862;2023-08-17T08:03:45;17.70;99.90
52867;DHT22;38739;53.324;6.862;2023-08-17T08:06:11;17.80;99.90
52867;DHT22;38739;53.324;6.862;2023-08-17T08:08:38;17.80;99.90
52867;DHT22;38739;53.324;6.862;2023-08-17T08:11:04;17.90;99.90
52867;DHT22;38739;53.324;6.862;2023-08-17T08:13:30;17.90;99.90
52867;DHT22;38739;53.324;6.862;2023-08-17T08:15:56;17.80;99.90
52867;DHT22;38739;53.324;6.862;2023-08-17T08:18:21;17.80;99.90
52867;DHT22;38739;53.324;6.862;2023-08-17T08:20:48;17.80;99.90
52867;DHT22;38739;53.324;6.862;2023-08-17T08:23:14;17.70;99.90
52867;DHT22;38739;53.324;6.862;2023-08-17T08:25:40;17.60;99.90
52867;DHT22;38739;53.324;6.862;2023-08-17T08:28:06;17.60;99.90
52867;DHT22;38739;53.324;6.862;2023-08-17T08:30:32;17.60;99.90
52867;DHT22;38739;53.324;6.862;2023-08-17T08:32:58;17.60;99.90
52867;DHT22;38739;53.324;6.862;2023-08-17T08:35:25;17.60;99.90
52867;DHT22;38739;53.324;6.862;2023-08-17T08:37:51;17.50;99.90
52867;DHT22;38739;53.324;6.862;2023-08-17T08:40:18;17.50;99.90
52867;DHT22;38739;53.324;6.862;2023-08-17T08:42:44;17.40;99.90
52867;DHT22;38739;53.324;6.862;2023-08-17T08:45:10;17.40;99.90
52867;DHT22;38739;53.324;6.862;2023-08-17T08:47:41;17.40;99.90
52867;DHT22;38739;53.324;6.862;2023-08-17T08:50:12;17.40;99.90
52867;DHT22;38739;53.324;6.862;2023-08-17T08:52:49;17.40;99.90
52867;DHT22;38739;53.324;6.862;2023-08-17T08:55:17;17.40;99.90
52867;DHT22;38739;53.324;6.862;2023-08-17T08:57:43;17.50;99.90
52867;DHT22;38739;53.324;6.862;2023-08-17T09:00:11;17.50;99.90
52867;DHT22;38739;53.324;6.862;2023-08-17T09:02:37;17.50;99.90
52867;DHT22;38739;53.324;6.862;2023-08-17T09:05:05;17.50;99.90
52867;DHT22;38739;53.324;6.862;2023-08-17T09:07:34;17.60;99.90
52867;DHT22;38739;53.324;6.862;2023-08-17T09:10:02;17.70;99.90
52867;DHT22;38739;53.324;6.862;2023-08-17T09:12:29;17.70;99.90
52867;DHT22;38739;53.324;6.862;2023-08-17T09:14:55;17.80;99.90
52867;DHT22;38739;53.324;6.862;2023-08-17T09:17:25;18.00;99.90
52867;DHT22;38739;53.324;6.862;2023-08-17T09:19:51;18.20;99.90
52867;DHT22;38739;53.324;6.862;2023-08-17T09:22:24;18.40;99.90
52867;DHT22;38739;53.324;6.862;2023-08-17T09:24:50;18.60;99.90
52867;DHT22;38739;53.324;6.862;2023-08-17T09:27:17;18.80;99.90
52867;DHT22;38739;53.324;6.862;2023-08-17T09:33:28;19.20;99.90
52867;DHT22;38739;53.324;6.862;2023-08-17T09:35:55;19.50;99.90
52867;DHT22;38739;53.324;6.862;2023-08-17T09:38:22;19.70;99.90
52867;DHT22;38739;53.324;6.862;2023-08-17T09:40:48;20.00;99.90
52867;DHT22;38739;53.324;6.862;2023-08-17T09:43:15;20.40;99.90
52867;DHT22;38739;53.324;6.862;2023-08-17T09:45:43;20.70;99.90
52867;DHT22;38739;53.324;6.862;2023-08-17T09:48:18;20.90;99.90
52867;DHT22;38739;53.324;6.862;2023-08-17T09:50:47;21.20;99.90
52867;DHT22;38739;53.324;6.862;2023-08-17T09:53:17;21.20;99.90
52867;DHT22;38739;53.324;6.862;2023-08-17T09:55:44;21.30;99.90
52867;DHT22;38739;53.324;6.862;2023-08-17T09:58:11;21.30;99.90
52867;DHT22;38739;53.324;6.862;2023-08-17T10:00:47;21.20;99.90
52867;DHT22;38739;53.324;6.862;2023-08-17T10:03:16;21.20;99.90
52867;DHT22;38739;53.324;6.862;2023-08-17T10:05:52;21.20;99.90
52867;DHT22;38739;53.324;6.862;2023-08-17T10:08:20;21.20;99.90
52867;DHT22;38739;53.324;6.862;2023-08-17T10:10:47;21.30;99.90
52867;DHT22;38739;53.324;6.862;2023-08-17T10:13:33;21.50;99.90
52867;DHT22;38739;53.324;6.862;2023-08-17T10:18:38;21.90;99.90
52867;DHT22;38739;53.324;6.862;2023-08-17T10:21:13;22.10;99.90
52867;DHT22;38739;53.324;6.862;2023-08-17T10:23:39;22.40;99.90
52867;DHT22;38739;53.324;6.862;2023-08-17T10:26:06;22.60;99.90
52867;DHT22;38739;53.324;6.862;2023-08-17T10:28:34;22.40;99.90
52867;DHT22;38739;53.324;6.862;2023-08-17T10:31:00;22.30;99.90
52867;DHT22;38739;53.324;6.862;2023-08-17T10:33:27;22.20;99.90
52867;DHT22;38739;53.324;6.862;2023-08-17T10:35:53;22.20;99.90
52867;DHT22;38739;53.324;6.862;2023-08-17T10:38:19;22.20;99.90
52867;DHT22;38739;53.324;6.862;2023-08-17T10:40:45;22.40;99.90
52867;DHT22;38739;53.324;6.862;2023-08-17T10:43:34;22.50;99.90
52867;DHT22;38739;53.324;6.862;2023-08-17T10:46:15;22.80;99.90
52867;DHT22;38739;53.324;6.862;2023-08-17T10:48:45;22.90;99.90
52867;DHT22;38739;53.324;6.862;2023-08-17T10:51:11;23.30;99.90
52867;DHT22;38739;53.324;6.862;2023-08-17T10:53:43;23.60;99.90
52867;DHT22;38739;53.324;6.862;2023-08-17T10:56:13;23.90;99.90
52867;DHT22;38739;53.324;6.862;2023-08-17T10:58:41;24.20;99.90
52867;DHT22;38739;53.324;6.862;2023-08-17T11:01:08;24.30;99.90
52867;DHT22;38739;53.324;6.862;2023-08-17T11:03:34;24.30;99.90
52867;DHT22;38739;53.324;6.862;2023-08-17T11:06:14;24.40;99.90
52867;DHT22;38739;53.324;6.862;2023-08-17T11:08:53;24.80;99.90
52867;DHT22;38739;53.324;6.862;2023-08-17T11:11:21;24.90;99.90
52867;DHT22;38739;53.324;6.862;2023-08-17T11:13:47;24.90;99.90
52867;DHT22;38739;53.324;6.862;2023-08-17T11:16:15;24.90;99.90
52867;DHT22;38739;53.324;6.862;2023-08-17T11:18:42;25.00;99.90
52867;DHT22;38739;53.324;6.862;2023-08-17T11:21:10;24.90;99.90
52867;DHT22;38739;53.324;6.862;2023-08-17T11:23:37;24.90;99.90
52867;DHT22;38739;53.324;6.862;2023-08-17T11:26:06;24.90;99.90
52867;DHT22;38739;53.324;6.862;2023-08-17T11:28:33;25.10;99.90
52867;DHT22;38739;53.324;6.862;2023-08-17T11:31:09;25.30;99.90
52867;DHT22;38739;53.324;6.862;2023-08-17T11:33:36;25.30;99.90
52867;DHT22;38739;53.324;6.862;2023-08-17T11:36:04;25.50;99.90
52867;DHT22;38739;53.324;6.862;2023-08-17T11:38:32;25.30;99.90
52867;DHT22;38739;53.324;6.862;2023-08-17T11:40:59;25.30;99.90
52867;DHT22;38739;53.324;6.862;2023-08-17T11:43:27;25.40;99.90
52867;DHT22;38739;53.324;6.862;2023-08-17T11:45:57;25.60;99.90
52867;DHT22;38739;53.324;6.862;2023-08-17T11:48:26;25.80;99.90
52867;DHT22;38739;53.324;6.862;2023-08-17T11:50:52;26.00;99.90
52867;DHT22;38739;53.324;6.862;2023-08-17T11:53:19;25.80;99.90
52867;DHT22;38739;53.324;6.862;2023-08-17T11:55:45;25.80;99.90
52867;DHT22;38739;53.324;6.862;2023-08-17T11:58:10;26.10;99.90
52867;DHT22;38739;53.324;6.862;2023-08-17T12:00:40;26.40;99.90
52867;DHT22;38739;53.324;6.862;2023-08-17T12:03:06;26.30;99.90
52867;DHT22;38739;53.324;6.862;2023-08-17T12:05:32;26.40;99.90
52867;DHT22;38739;53.324;6.862;2023-08-17T12:08:02;26.30;99.90
52867;DHT22;38739;53.324;6.862;2023-08-17T12:10:29;26.10;99.90
52867;DHT22;38739;53.324;6.862;2023-08-17T12:12:58;26.00;99.90
52867;DHT22;38739;53.324;6.862;2023-08-17T12:15:33;26.10;99.90
52867;DHT22;38739;53.324;6.862;2023-08-17T12:18:02;26.20;99.90
52867;DHT22;38739;53.324;6.862;2023-08-17T12:20:28;26.20;99.90
52867;DHT22;38739;53.324;6.862;2023-08-17T12:22:57;26.50;99.90
52867;DHT22;38739;53.324;6.862;2023-08-17T12:25:25;26.90;99.90
52867;DHT22;38739;53.324;6.862;2023-08-17T12:27:51;27.20;99.90
52867;DHT22;38739;53.324;6.862;2023-08-17T12:30:30;27.60;99.90
52867;DHT22;38739;53.324;6.862;2023-08-17T12:33:01;27.90;99.90
52867;DHT22;38739;53.324;6.862;2023-08-17T12:35:27;28.20;99.80
52867;DHT22;38739;53.324;6.862;2023-08-17T12:37:54;28.30;98.50
52867;DHT22;38739;53.324;6.862;2023-08-17T12:40:20;28.20;98.40
52867;DHT22;38739;53.324;6.862;2023-08-17T12:42:46;27.70;98.10
52867;DHT22;38739;53.324;6.862;2023-08-17T12:45:12;27.40;98.20
52867;DHT22;38739;53.324;6.862;2023-08-17T12:47:38;27.30;99.50
52867;DHT22;38739;53.324;6.862;2023-08-17T12:50:04;27.00;99.90
52867;DHT22;38739;53.324;6.862;2023-08-17T12:52:30;26.80;99.90
52867;DHT22;38739;53.324;6.862;2023-08-17T12:54:56;26.50;99.90
52867;DHT22;38739;53.324;6.862;2023-08-17T12:57:22;26.50;99.90
52867;DHT22;38739;53.324;6.862;2023-08-17T12:59:48;26.00;99.90
52867;DHT22;38739;53.324;6.862;2023-08-17T13:02:13;25.80;99.90
52867;DHT22;38739;53.324;6.862;2023-08-17T13:04:44;25.60;99.90
52867;DHT22;38739;53.324;6.862;2023-08-17T13:07:10;25.40;99.90
52867;DHT22;38739;53.324;6.862;2023-08-17T13:09:36;25.20;99.90
52867;DHT22;38739;53.324;6.862;2023-08-17T13:12:01;24.90;99.90
52867;DHT22;38739;53.324;6.862;2023-08-17T13:14:27;24.80;99.90
52867;DHT22;38739;53.324;6.862;2023-08-17T13:16:53;24.70;99.90
52867;DHT22;38739;53.324;6.862;2023-08-17T13:19:18;24.40;99.90
52867;DHT22;38739;53.324;6.862;2023-08-17T13:21:44;24.40;99.90
52867;DHT22;38739;53.324;6.862;2023-08-17T13:24:11;24.50;99.90
52867;DHT22;38739;53.324;6.862;2023-08-17T13:26:36;24.40;99.90
52867;DHT22;38739;53.324;6.862;2023-08-17T13:29:02;24.40;99.90
52867;DHT22;38739;53.324;6.862;2023-08-17T13:31:29;24.30;99.90
52867;DHT22;38739;53.324;6.862;2023-08-17T13:33:54;24.20;99.90
52867;DHT22;38739;53.324;6.862;2023-08-17T13:36:20;24.20;99.90
52867;DHT22;38739;53.324;6.862;2023-08-17T13:38:46;24.00;99.90
52867;DHT22;38739;53.324;6.862;2023-08-17T13:41:12;24.00;99.90
52867;DHT22;38739;53.324;6.862;2023-08-17T13:43:38;23.80;99.90
52867;DHT22;38739;53.324;6.862;2023-08-17T13:46:04;23.70;99.90
52867;DHT22;38739;53.324;6.862;2023-08-17T13:48:30;23.60;99.90
52867;DHT22;38739;53.324;6.862;2023-08-17T13:50:56;23.60;99.90
52867;DHT22;38739;53.324;6.862;2023-08-17T13:53:22;23.60;99.90
52867;DHT22;38739;53.324;6.862;2023-08-17T13:55:48;23.60;99.90
52867;DHT22;38739;53.324;6.862;2023-08-17T13:58:13;23.60;99.90
52867;DHT22;38739;53.324;6.862;2023-08-17T14:00:41;23.60;99.90
52867;DHT22;38739;53.324;6.862;2023-08-17T14:03:07;23.50;99.90
52867;DHT22;38739;53.324;6.862;2023-08-17T14:05:32;23.40;99.90
52867;DHT22;38739;53.324;6.862;2023-08-17T14:07:58;23.30;99.90
52867;DHT22;38739;53.324;6.862;2023-08-17T14:10:24;23.20;99.90
52867;DHT22;38739;53.324;6.862;2023-08-17T14:12:50;23.10;99.90
52867;DHT22;38739;53.324;6.862;2023-08-17T14:15:15;23.00;99.90
52867;DHT22;38739;53.324;6.862;2023-08-17T14:17:41;22.90;99.90
52867;DHT22;38739;53.324;6.862;2023-08-17T14:20:07;22.80;99.90
52867;DHT22;38739;53.324;6.862;2023-08-17T14:22:34;22.60;99.90
52867;DHT22;38739;53.324;6.862;2023-08-17T14:24:59;22.60;99.90
52867;DHT22;38739;53.324;6.862;2023-08-17T14:27:25;22.50;99.90
52867;DHT22;38739;53.324;6.862;2023-08-17T14:29:51;22.40;99.90
52867;DHT22;38739;53.324;6.862;2023-08-17T14:32:16;22.30;99.90
52867;DHT22;38739;53.324;6.862;2023-08-17T14:34:42;22.20;99.90
52867;DHT22;38739;53.324;6.862;2023-08-17T14:37:08;22.20;99.90
52867;DHT22;38739;53.324;6.862;2023-08-17T14:39:33;22.10;99.90
52867;DHT22;38739;53.324;6.862;2023-08-17T14:41:59;22.10;99.90
52867;DHT22;38739;53.324;6.862;2023-08-17T14:44:25;22.00;99.90
52867;DHT22;38739;53.324;6.862;2023-08-17T14:46:50;21.90;99.90
52867;DHT22;38739;53.324;6.862;2023-08-17T14:49:16;21.80;99.90
52867;DHT22;38739;53.324;6.862;2023-08-17T14:51:42;21.80;99.90
52867;DHT22;38739;53.324;6.862;2023-08-17T14:54:08;21.70;99.90
52867;DHT22;38739;53.324;6.862;2023-08-17T14:56:35;21.60;99.90
52867;DHT22;38739;53.324;6.862;2023-08-17T14:59:00;21.60;99.90
52867;DHT22;38739;53.324;6.862;2023-08-17T15:01:27;21.50;99.90
52867;DHT22;38739;53.324;6.862;2023-08-17T15:03:53;21.50;99.90
52867;DHT22;38739;53.324;6.862;2023-08-17T15:06:19;21.50;99.90
52867;DHT22;38739;53.324;6.862;2023-08-17T15:08:49;21.50;99.90
52867;DHT22;38739;53.324;6.862;2023-08-17T15:11:15;21.40;99.90
52867;DHT22;38739;53.324;6.862;2023-08-17T15:13:41;21.40;99.90
52867;DHT22;38739;53.324;6.862;2023-08-17T15:16:06;21.40;99.90
52867;DHT22;38739;53.324;6.862;2023-08-17T15:18:32;21.40;99.90
52867;DHT22;38739;53.324;6.862;2023-08-17T15:20:58;21.40;99.90
52867;DHT22;38739;53.324;6.862;2023-08-17T15:23:24;21.40;99.90
52867;DHT22;38739;53.324;6.862;2023-08-17T15:25:49;21.40;99.90
52867;DHT22;38739;53.324;6.862;2023-08-17T15:28:15;21.50;99.90
52867;DHT22;38739;53.324;6.862;2023-08-17T15:30:41;21.50;99.90
52867;DHT22;38739;53.324;6.862;2023-08-17T15:33:08;21.50;99.90
52867;DHT22;38739;53.324;6.862;2023-08-17T15:35:34;21.40;99.90
52867;DHT22;38739;53.324;6.862;2023-08-17T15:37:59;21.30;99.90